Terminal Aerodrome Forecast
Issued by NWS

Home | Current Version | Previous Version | Text Only | Print | Product List | Glossary Off
Versions: 1 2 3 4 5 6 7 8 9 10 11 12 13 14 15 16 17 18 19

000
FTUS42 KMHX 231700
TAFISO
TAF
KISO 231720Z 2318/2418 07007KT P6SM -RA SCT030 OVC040
     FM232000 07008KT 4SM -RA BR OVC015
     FM232200 07010KT 2SM RA BR OVC007 WS015/13035KT
     FM240600 25010G18KT 3SM -RA BR OVC004 WS015/20040KT
     FM241200 30008KT 2SM -RA BR OVC007
      AMD LTD TO CLD VIS AND WIND=

USA.gov is the U.S. government's official web portal to all federal, state and local government web resources and services.